Time;durP1;ratioP1;P1;durP2;ratioP2;P2;SDS_P1;SDS_P2;PMS_P1;PMS_P2;Temp;Humidity;BMP_temperature;BMP_pressure;BME280_temperature;BME280_humidity;BME280_pressure;Samples;Min_cycle;Max_cycle;Signal;HPM_P1;HPM_P2
2023/08/15 00:03:13;;;;;;;6.65;5.05;;;;;;;23.30;80.37;98991.69;7174752;40;20329;31
2023/08/15 00:08:33;;;;;;;9.03;4.77;;;;;;;23.30;81.37;98980.69;7162172;40;20357;31
2023/08/15 00:14:08;;;;;;;5.15;4.15;;;;;;;23.31;80.88;98977.66;7189189;40;20272;31
2023/08/15 00:19:44;;;;;;;6.95;4.20;;;;;;;23.29;80.86;98954.25;7207726;40;20347;31
2023/08/15 00:25:19;;;;;;;5.45;4.25;;;;;;;23.18;80.96;98947.78;7213871;40;20457;31
2023/08/15 00:30:54;;;;;;;5.18;4.32;;;;;;;22.97;82.33;98954.06;7236374;40;20311;31
2023/08/15 00:36:30;;;;;;;7.85;4.55;;;;;;;22.87;82.35;98943.75;7149286;40;20263;31
2023/08/15 00:42:05;;;;;;;5.40;4.20;;;;;;;22.95;82.53;98949.94;7167377;40;20250;31
2023/08/15 00:47:40;;;;;;;5.28;4.30;;;;;;;23.07;82.58;98945.97;7215722;40;20273;31
2023/08/15 00:53:13;;;;;;;6.10;4.72;;;;;;;23.15;81.82;98933.69;7188168;40;20279;31
2023/08/15 00:58:45;;;;;;;7.27;4.50;;;;;;;23.06;82.91;98935.22;7150529;40;20283;31
2023/08/15 01:04:20;;;;;;;6.05;4.70;;;;;;;23.09;83.41;98941.03;7137023;40;20344;31
2023/08/15 01:09:57;;;;;;;9.63;4.80;;;;;;;23.14;83.61;98927.37;7154145;40;20269;31
2023/08/15 01:15:32;;;;;;;8.15;4.70;;;;;;;23.15;84.03;98940.03;7190853;40;20286;31
2023/08/15 01:21:07;;;;;;;5.65;4.40;;;;;;;23.09;84.28;98949.28;7174852;40;20262;31
2023/08/15 01:26:43;;;;;;;6.73;4.80;;;;;;;23.04;82.62;98951.97;7176101;40;20247;31
2023/08/15 01:32:16;;;;;;;7.37;4.47;;;;;;;23.18;83.10;98958.78;7221538;39;20245;31
2023/08/15 01:37:51;;;;;;;7.10;4.50;;;;;;;23.21;82.80;98977.50;7234668;40;20331;31
2023/08/15 01:43:27;;;;;;;7.37;5.00;;;;;;;23.07;83.07;98980.88;7162122;40;20471;31
2023/08/15 01:49:02;;;;;;;8.65;5.10;;;;;;;22.90;82.65;98983.66;7150733;40;20355;31
2023/08/15 01:54:23;;;;;;;5.35;4.57;;;;;;;22.89;83.15;99001.25;7105563;41;20240;31
2023/08/15 01:59:56;;;;;;;5.07;4.57;;;;;;;22.89;83.30;99013.06;7158598;40;20336;31
2023/08/15 02:05:14;;;;;;;7.87;4.50;;;;;;;22.91;83.79;99015.56;7219252;40;20285;31
2023/08/15 02:10:30;;;;;;;7.28;5.15;;;;;;;22.77;84.31;99017.00;7239449;40;20344;31
2023/08/15 02:16:03;;;;;;;6.28;4.70;;;;;;;22.74;84.13;99017.47;7202765;40;20270;31
2023/08/15 02:21:24;;;;;;;7.10;5.20;;;;;;;22.86;83.10;98991.56;7244366;40;20504;31
2023/08/15 02:26:58;;;;;;;8.52;4.93;;;;;;;22.78;83.72;98989.25;7236968;40;20257;31
2023/08/15 02:32:34;;;;;;;8.93;4.55;;;;;;;22.79;83.36;98974.41;7232386;40;20253;31
2023/08/15 02:37:52;;;;;;;5.60;4.28;;;;;;;22.90;83.00;98964.44;7202560;40;20277;31
2023/08/15 02:43:26;;;;;;;8.30;4.40;;;;;;;22.86;83.43;98966.00;7229376;40;20391;31
2023/08/15 02:48:59;;;;;;;6.64;4.80;;;;;;;22.82;83.71;98964.81;7241726;40;20289;31
2023/08/15 02:54:34;;;;;;;6.35;5.00;;;;;;;22.82;82.73;98970.31;7318945;39;20280;31
2023/08/15 02:59:55;;;;;;;6.05;4.70;;;;;;;22.73;82.68;98967.16;7235844;40;20264;31
2023/08/15 03:05:30;;;;;;;4.95;4.43;;;;;;;22.70;83.98;98978.66;7257727;40;20324;31
2023/08/15 03:11:05;;;;;;;6.25;4.85;;;;;;;22.55;84.11;98966.56;7258551;40;20246;31
2023/08/15 03:16:38;;;;;;;7.28;4.72;;;;;;;22.55;84.21;98944.59;7184222;40;20293;31
2023/08/15 03:27:15;;;;;;;5.65;4.35;;;;;;;22.37;84.03;98965.75;7219823;40;21305;31
2023/08/15 03:37:48;;;;;;;4.18;3.78;;;;;;;22.54;83.85;98995.97;7302980;39;21119;31
2023/08/15 03:43:36;;;;;;;5.77;4.00;;;;;;;22.46;82.99;99001.87;7350945;39;20275;31
2023/08/15 03:49:12;;;;;;;4.95;3.60;;;;;;;22.38;82.95;99015.97;7237256;40;20359;31
2023/08/15 03:54:32;;;;;;;5.80;3.60;;;;;;;22.45;82.55;99034.00;7270391;40;20295;31
2023/08/15 04:00:05;;;;;;;5.80;3.33;;;;;;;22.43;82.31;99033.41;7057154;40;20225;31
2023/08/15 04:05:26;;;;;;;3.90;3.22;;;;;;;22.53;82.22;99040.16;7199451;40;20278;31
2023/08/15 04:11:00;;;;;;;3.70;3.26;;;;;;;22.53;81.64;99029.16;7207229;40;20323;31
2023/08/15 04:21:36;;;;;;;4.18;3.50;;;;;;;22.21;82.54;99054.41;7164220;40;20262;31
2023/08/15 04:26:57;;;;;;;4.00;3.50;;;;;;;22.29;82.53;99070.47;7256625;39;20377;31
2023/08/15 04:32:16;;;;;;;8.52;3.87;;;;;;;22.30;81.73;99080.41;7266569;39;20345;31
2023/08/15 04:37:52;;;;;;;3.70;3.33;;;;;;;22.38;82.06;99070.91;7299639;39;20398;31
2023/08/15 04:43:09;;;;;;;4.77;3.53;;;;;;;22.43;81.71;99079.25;7272751;39;20280;31
2023/08/15 04:48:41;;;;;;;3.25;2.70;;;;;;;22.42;81.05;99092.16;7274453;40;20373;31
2023/08/15 04:59:18;;;;;;;3.37;2.60;;;;;;;22.56;80.71;99100.94;7285689;40;21277;31
2023/08/15 05:14:58;;;;;;;3.45;2.17;;;;;;;22.67;78.89;99058.84;7332486;39;20272;31
2023/08/15 05:20:34;;;;;;;2.97;2.40;;;;;;;22.73;78.02;99059.81;7341861;39;20260;31
2023/08/15 05:26:05;;;;;;;2.75;2.15;;;;;;;22.74;77.67;99076.03;7237473;40;21596;31
2023/08/15 05:31:41;;;;;;;7.30;3.42;;;;;;;22.74;77.86;99081.53;7273477;40;20299;31
2023/08/15 05:37:01;;;;;;;2.82;2.20;;;;;;;22.80;78.42;99090.69;7197404;40;20259;31
2023/08/15 05:42:21;;;;;;;3.80;2.10;;;;;;;22.88;78.31;99090.28;7222477;40;20276;31
2023/08/15 05:47:57;;;;;;;3.13;2.33;;;;;;;22.88;79.08;99073.78;7231943;40;20287;31
2023/08/15 05:53:15;;;;;;;4.30;2.25;;;;;;;22.96;77.77;99083.53;7265992;40;20252;31
2023/08/15 05:58:35;;;;;;;3.84;2.26;;;;;;;23.00;78.82;99092.94;7255364;40;20408;31
2023/08/15 06:04:11;;;;;;;3.90;2.45;;;;;;;23.03;78.33;99090.56;7259154;40;20276;31
2023/08/15 06:09:31;;;;;;;4.18;2.60;;;;;;;23.08;78.71;99104.34;7227465;40;20265;31
2023/08/15 06:15:04;;;;;;;5.15;2.72;;;;;;;23.18;78.53;99109.19;7195471;40;20242;31
2023/08/15 06:20:40;;;;;;;3.55;3.08;;;;;;;23.30;77.40;99096.22;7243463;40;20252;31
2023/08/15 06:26:15;;;;;;;3.15;2.45;;;;;;;23.40;77.43;99112.03;7182481;40;20282;31
2023/08/15 06:31:50;;;;;;;3.73;2.50;;;;;;;23.53;77.18;99114.44;7200348;40;21285;31
2023/08/15 06:37:26;;;;;;;5.80;2.33;;;;;;;23.55;75.28;99126.91;7212748;40;21158;31
2023/08/15 06:43:01;;;;;;;4.00;2.47;;;;;;;23.58;75.81;99142.88;7184749;40;20261;31
2023/08/15 06:48:21;;;;;;;5.07;2.45;;;;;;;23.63;76.27;99150.38;7195711;40;20319;31
2023/08/15 06:53:58;;;;;;;2.97;2.25;;;;;;;23.68;77.46;99155.97;7221424;40;20383;31
2023/08/15 07:04:19;;;;;;;3.00;2.00;;;;;;;24.04;74.14;99168.34;7280621;39;21093;31
2023/08/15 07:09:55;;;;;;;3.62;2.40;;;;;;;24.29;73.21;99154.09;7292984;40;20246;31
2023/08/15 07:15:16;;;;;;;3.95;2.60;;;;;;;24.43;74.01;99178.25;7239545;40;20241;31
2023/08/15 07:20:33;;;;;;;2.87;2.57;;;;;;;24.58;73.14;99158.28;7253447;40;20275;31
2023/08/15 07:26:09;;;;;;;3.30;2.45;;;;;;;24.78;72.35;99130.97;7235942;40;20254;31
2023/08/15 07:31:30;;;;;;;3.85;2.47;;;;;;;25.05;71.66;99120.78;7213105;40;20250;31
2023/08/15 07:37:01;;;;;;;2.80;2.20;;;;;;;25.30;71.48;99127.59;7243580;40;20279;31
2023/08/15 07:42:37;;;;;;;2.80;2.20;;;;;;;25.46;70.60;99138.47;7232405;40;20509;31
2023/08/15 07:47:58;;;;;;;4.82;2.97;;;;;;;25.62;69.70;99163.47;7291838;39;20255;31
2023/08/15 07:53:32;;;;;;;4.78;2.40;;;;;;;25.78;69.38;99160.56;7280088;39;20248;31
2023/08/15 07:59:08;;;;;;;2.60;2.40;;;;;;;26.03;68.03;99159.88;7245508;39;20264;31
2023/08/15 08:04:43;;;;;;;3.37;2.62;;;;;;;26.16;67.72;99159.38;7234471;39;20276;31
2023/08/15 08:10:15;;;;;;;3.35;2.50;;;;;;;26.26;67.40;99169.69;7195264;40;20698;31
2023/08/15 08:20:55;;;;;;;3.40;2.60;;;;;;;26.38;67.65;99159.25;7173903;40;20290;31
2023/08/15 08:26:29;;;;;;;7.03;2.95;;;;;;;26.61;67.04;99161.53;7178760;40;20254;31
2023/08/15 08:31:45;;;;;;;3.10;2.80;;;;;;;26.72;66.62;99160.44;7241670;40;20257;31
2023/08/15 08:37:19;;;;;;;5.00;2.70;;;;;;;27.04;65.39;99156.69;7218486;40;21120;31
2023/08/15 08:42:37;;;;;;;3.02;2.62;;;;;;;27.35;64.59;99173.03;7225167;40;20264;31
2023/08/15 08:48:08;;;;;;;3.50;2.70;;;;;;;27.47;64.07;99158.12;7231089;40;20257;31
2023/08/15 08:53:45;;;;;;;2.97;2.72;;;;;;;27.51;63.54;99173.09;7248447;39;20519;31
2023/08/15 08:59:21;;;;;;;6.50;3.13;;;;;;;27.66;62.79;99184.97;7292555;39;20267;31
2023/08/15 09:04:52;;;;;;;3.80;2.85;;;;;;;27.67;62.65;99194.13;7233174;40;20609;31
2023/08/15 09:15:29;;;;;;;4.45;3.00;;;;;;;27.23;64.00;99205.72;7221158;40;21241;31
2023/08/15 09:20:47;;;;;;;3.62;3.20;;;;;;;27.39;64.20;99201.00;7238830;39;20294;31
2023/08/15 09:26:25;;;;;;;4.74;3.10;;;;;;;27.14;64.72;99218.44;7258433;40;20405;31
2023/08/15 09:31:57;;;;;;;4.75;3.35;;;;;;;27.16;65.74;99215.41;7196143;40;20266;31
2023/08/15 09:37:31;;;;;;;4.35;3.30;;;;;;;27.59;64.13;99214.06;7228732;40;20273;31
2023/08/15 09:43:04;;;;;;;4.58;3.60;;;;;;;27.42;64.95;99217.09;7193287;40;20278;31
2023/08/15 09:53:43;;;;;;;7.85;4.35;;;;;;;28.00;64.09;99223.16;7226472;40;20254;31
2023/08/15 09:59:19;;;;;;;5.90;4.05;;;;;;;28.23;62.23;99242.84;7268094;40;20265;31
2023/08/15 10:04:50;;;;;;;5.93;4.00;;;;;;;28.33;63.57;99239.22;7264290;40;20346;31
2023/08/15 10:15:53;;;;;;;4.80;3.75;;;;;;;27.92;61.67;99257.00;7355149;38;10183065;31
2023/08/15 10:21:14;;;;;;;4.13;2.80;;;;;;;27.71;58.89;99253.41;7362785;39;20514;31
2023/08/15 10:26:49;;;;;;;6.45;3.10;;;;;;;27.51;58.58;99248.69;7345664;39;20734;31
2023/08/15 10:32:25;;;;;;;7.35;3.10;;;;;;;27.34;59.97;99250.84;7245006;40;20246;31
2023/08/15 10:38:01;;;;;;;4.47;3.35;;;;;;;27.24;61.91;99267.44;7158546;40;20427;31
2023/08/15 10:43:39;;;;;;;6.65;3.30;;;;;;;27.08;63.57;99266.56;7180856;40;20247;31
2023/08/15 10:49:17;;;;;;;6.62;3.05;;;;;;;26.93;63.40;99274.00;7201688;40;20245;31
2023/08/15 10:54:48;;;;;;;5.45;2.90;;;;;;;26.90;63.21;99267.03;7214267;40;20416;31
2023/08/15 11:00:21;;;;;;;5.35;3.00;;;;;;;26.70;62.26;99278.84;7233066;40;20269;31
2023/08/15 11:05:57;;;;;;;3.25;2.35;;;;;;;26.59;61.01;99276.31;7258192;40;20442;31
2023/08/15 11:11:29;;;;;;;3.95;2.67;;;;;;;26.53;59.98;99264.38;7220448;40;20452;31
2023/08/15 11:17:05;;;;;;;5.70;2.45;;;;;;;26.87;59.46;99254.59;7190072;40;20276;31
2023/08/15 11:22:37;;;;;;;4.57;2.37;;;;;;;27.27;58.98;99242.81;7155200;40;20262;31
2023/08/15 11:28:09;;;;;;;3.96;2.58;;;;;;;27.84;58.13;99243.69;7170110;40;20273;31
2023/08/15 11:33:41;;;;;;;2.60;2.40;;;;;;;27.92;57.13;99245.91;7197343;40;20272;31
2023/08/15 11:39:16;;;;;;;4.87;2.58;;;;;;;28.44;56.86;99259.44;7202432;40;20286;31
2023/08/15 11:49:38;;;;;;;2.72;2.25;;;;;;;28.56;55.52;99248.88;7277243;40;21178;31
2023/08/15 11:55:21;;;;;;;4.85;2.10;;;;;;;29.05;54.99;99252.53;7305735;39;20326;31
2023/08/15 12:00:41;;;;;;;2.70;2.07;;;;;;;29.14;53.62;99260.31;7292320;39;20312;31
2023/08/15 12:06:18;;;;;;;4.60;2.00;;;;;;;29.09;53.73;99269.50;7274629;40;20255;31
2023/08/15 12:11:50;;;;;;;2.40;2.10;;;;;;;29.33;54.16;99275.19;7233581;40;20354;31
2023/08/15 12:17:22;;;;;;;2.33;1.85;;;;;;;29.19;54.60;99274.12;7252737;40;20253;31
2023/08/15 12:22:57;;;;;;;2.70;1.90;;;;;;;29.00;54.62;99260.94;7236740;40;20254;31
2023/08/15 12:28:30;;;;;;;2.30;1.80;;;;;;;28.83;56.48;99265.19;7202276;40;20270;31
2023/08/15 12:34:05;;;;;;;2.40;1.90;;;;;;;28.83;56.06;99254.87;7223476;40;20237;31
2023/08/15 12:39:23;;;;;;;3.63;1.80;;;;;;;28.60;55.51;99273.00;7194336;40;20265;31
2023/08/15 12:44:58;;;;;;;1.98;1.77;;;;;;;28.85;54.85;99257.38;7223441;40;20250;31
2023/08/15 12:50:30;;;;;;;4.28;1.70;;;;;;;29.21;54.67;99271.91;7189098;40;20247;31
2023/08/15 12:56:02;;;;;;;2.35;2.00;;;;;;;28.90;56.14;99290.66;7213385;40;20253;31
2023/08/15 13:01:35;;;;;;;2.25;1.85;;;;;;;28.82;56.10;99291.25;7213558;40;20268;31
2023/08/15 13:06:52;;;;;;;2.67;1.90;;;;;;;29.10;56.12;99274.75;7194164;40;20242;31
2023/08/15 13:12:27;;;;;;;2.10;1.60;;;;;;;29.59;55.27;99273.91;7213366;40;20313;31
2023/08/15 13:18:00;;;;;;;2.60;1.50;;;;;;;29.24;54.99;99254.66;7203984;40;20269;31
2023/08/15 13:23:35;;;;;;;1.74;1.28;;;;;;;28.90;54.76;99271.25;7263915;40;20462;31
2023/08/15 13:29:07;;;;;;;1.83;1.50;;;;;;;28.60;55.13;99252.75;7227707;40;20257;31
2023/08/15 13:34:40;;;;;;;1.95;1.50;;;;;;;28.44;57.74;99263.03;7207609;40;20414;31
2023/08/15 13:40:12;;;;;;;2.08;1.58;;;;;;;28.50;57.79;99267.47;7194972;40;20246;31
2023/08/15 13:45:47;;;;;;;2.05;1.50;;;;;;;28.50;57.82;99281.34;7200959;40;20241;31
2023/08/15 13:51:21;;;;;;;2.42;1.67;;;;;;;28.89;58.41;99275.94;7230763;40;21222;31
2023/08/15 14:01:42;;;;;;;1.73;1.50;;;;;;;28.92;56.89;99275.38;7288411;40;20268;31
2023/08/15 14:12:22;;;;;;;1.70;1.60;;;;;;;28.65;57.61;99270.16;7356928;39;21213;31
2023/08/15 14:22:42;;;;;;;4.20;1.80;;;;;;;28.33;59.07;99252.25;7276473;40;20272;31
2023/08/15 14:28:17;;;;;;;5.45;1.75;;;;;;;28.21;58.13;99253.37;7313691;39;20435;31
2023/08/15 14:33:34;;;;;;;2.00;1.40;;;;;;;28.02;59.60;99254.22;7285943;40;20533;31
2023/08/15 14:38:55;;;;;;;1.48;1.37;;;;;;;27.81;59.40;99249.81;7274264;40;20317;31
2023/08/15 14:44:32;;;;;;;2.12;1.67;;;;;;;27.59;61.10;99245.38;7253438;40;20244;31
2023/08/15 14:49:48;;;;;;;2.20;1.40;;;;;;;27.25;61.30;99244.19;7209434;40;20241;31
2023/08/15 14:55:24;;;;;;;1.90;1.58;;;;;;;27.12;62.37;99236.41;7229277;40;20335;31
2023/08/15 15:00:58;;;;;;;2.30;1.60;;;;;;;27.18;61.61;99230.63;7231984;40;20278;31
2023/08/15 15:11:18;;;;;;;2.42;1.60;;;;;;;27.21;62.37;99221.75;7231504;40;21046;31
2023/08/15 15:16:50;;;;;;;2.37;1.48;;;;;;;27.20;61.66;99224.81;7280882;40;20416;31
2023/08/15 15:27:30;;;;;;;1.90;1.35;;;;;;;27.14;61.03;99221.19;7338390;39;20259;31
2023/08/15 15:33:06;;;;;;;2.44;1.40;;;;;;;26.91;61.50;99218.91;7294703;40;20268;31
2023/08/15 15:38:27;;;;;;;2.10;1.50;;;;;;;26.81;62.10;99219.69;7209145;40;20349;31
2023/08/15 15:43:47;;;;;;;3.27;1.50;;;;;;;27.15;61.77;99228.41;7205279;40;20336;31
2023/08/15 15:49:22;;;;;;;1.25;1.15;;;;;;;27.12;60.93;99228.94;7205866;40;20266;31
2023/08/15 15:54:54;;;;;;;3.15;1.30;;;;;;;27.10;62.13;99233.91;7224533;40;20428;31
2023/08/15 16:00:27;;;;;;;1.87;1.70;;;;;;;27.10;61.67;99235.84;7217721;40;20260;31
2023/08/15 16:06:03;;;;;;;3.60;1.80;;;;;;;27.18;60.61;99243.62;7258027;40;20249;31
2023/08/15 16:11:21;;;;;;;1.70;1.45;;;;;;;27.42;60.00;99244.78;7234807;40;20435;31
2023/08/15 16:16:55;;;;;;;2.40;1.50;;;;;;;27.15;59.89;99239.47;7238953;40;20260;31
2023/08/15 16:22:29;;;;;;;1.95;1.55;;;;;;;27.23;60.47;99233.41;7274560;40;20249;31
2023/08/15 16:27:47;;;;;;;1.90;1.50;;;;;;;27.38;60.61;99242.84;7230958;40;20327;31
2023/08/15 16:33:22;;;;;;;1.95;1.30;;;;;;;27.41;58.79;99234.81;7216439;40;20249;31
2023/08/15 16:38:58;;;;;;;3.15;1.65;;;;;;;27.13;58.04;99240.84;7216862;40;20491;31
2023/08/15 16:44:15;;;;;;;1.94;1.40;;;;;;;26.96;59.16;99234.69;7222878;40;20397;31
2023/08/15 16:54:53;;;;;;;1.50;1.40;;;;;;;27.11;58.70;99232.00;7127656;39;9768944;31
2023/08/15 17:00:29;;;;;;;1.30;1.20;;;;;;;27.21;58.98;99238.34;7296473;39;20342;31
2023/08/15 17:06:01;;;;;;;1.60;1.50;;;;;;;27.21;58.88;99237.53;7273527;40;20247;31
2023/08/15 17:11:34;;;;;;;1.60;1.50;;;;;;;27.17;60.01;99228.94;7295036;39;21383;31
2023/08/15 17:17:09;;;;;;;2.50;1.60;;;;;;;27.17;59.62;99237.25;7238066;40;20227;31
2023/08/15 17:22:41;;;;;;;3.03;1.50;;;;;;;27.07;60.12;99247.47;7228349;40;20253;31
2023/08/15 17:28:12;;;;;;;2.00;1.48;;;;;;;26.95;60.70;99249.62;7212124;40;20344;31
2023/08/15 17:33:47;;;;;;;3.05;1.70;;;;;;;26.88;59.94;99256.28;7218912;40;20338;31
2023/08/15 17:39:22;;;;;;;2.63;2.30;;;;;;;26.79;59.71;99268.09;7233693;40;20332;31
2023/08/15 17:44:58;;;;;;;2.33;1.63;;;;;;;26.72;60.37;99276.63;7209282;40;20444;31
2023/08/15 17:50:15;;;;;;;3.07;1.70;;;;;;;26.67;61.28;99290.47;7195849;40;20249;31
2023/08/15 17:55:35;;;;;;;1.80;1.60;;;;;;;26.62;61.54;99298.72;7244407;40;20241;31
2023/08/15 18:01:11;;;;;;;2.80;1.70;;;;;;;26.55;61.77;99303.62;7227669;40;20462;31
2023/08/15 18:06:46;;;;;;;2.22;2.03;;;;;;;26.45;61.50;99307.19;7196393;40;20349;31
2023/08/15 18:12:21;;;;;;;2.10;1.63;;;;;;;26.38;62.12;99314.87;7220854;40;20299;31
2023/08/15 18:17:57;;;;;;;3.03;1.70;;;;;;;26.28;62.76;99322.28;7212755;40;20289;31
2023/08/15 18:28:33;;;;;;;2.30;1.70;;;;;;;26.05;64.67;99326.22;7204024;40;20271;31
2023/08/15 18:39:10;;;;;;;2.60;1.80;;;;;;;25.76;65.75;99341.41;7286355;39;21257;31
2023/08/15 18:44:43;;;;;;;2.20;1.65;;;;;;;25.62;65.43;99357.59;7231395;40;20406;31
2023/08/15 18:50:18;;;;;;;5.20;1.30;;;;;;;25.48;66.29;99362.66;7242731;40;20424;31
2023/08/15 18:55:53;;;;;;;2.85;1.75;;;;;;;25.39;67.13;99368.91;7254124;40;20261;31
2023/08/15 19:01:13;;;;;;;3.97;1.83;;;;;;;25.20;66.55;99384.94;7255178;40;20431;31
2023/08/15 19:06:46;;;;;;;3.37;2.08;;;;;;;25.16;67.38;99391.22;7284913;39;20237;31
2023/08/15 19:17:23;;;;;;;2.00;1.73;;;;;;;25.00;68.18;99398.50;7294278;40;20338;31
2023/08/15 19:27:59;;;;;;;2.15;1.70;;;;;;;24.83;68.05;99409.53;7299500;39;21170;31
2023/08/15 19:38:39;;;;;;;5.70;3.80;;;;;;;24.64;69.30;99408.97;7259434;40;20268;31
2023/08/15 19:49:00;;;;;;;2.30;1.90;;;;;;;24.52;68.95;99407.41;7255186;40;20276;31
2023/08/15 19:54:36;;;;;;;4.57;3.35;;;;;;;24.41;70.20;99402.81;7276067;39;20287;31
2023/08/15 20:04:57;;;;;;;3.05;2.20;;;;;;;24.25;70.48;99396.22;7314913;39;21347;31
2023/08/15 20:10:31;;;;;;;3.80;2.10;;;;;;;24.15;71.80;99396.88;7314087;39;20268;31
2023/08/15 20:16:08;;;;;;;3.00;1.95;;;;;;;24.01;70.82;99401.00;7304028;39;20238;31
2023/08/15 20:21:28;;;;;;;3.07;2.00;;;;;;;24.02;72.14;99399.94;7260511;40;20453;31
2023/08/15 20:27:04;;;;;;;2.08;1.85;;;;;;;23.97;71.92;99394.31;7218081;40;20242;31
2023/08/15 20:32:39;;;;;;;2.60;2.10;;;;;;;23.90;72.78;99388.16;7264362;40;20249;31
2023/08/15 20:37:59;;;;;;;3.22;2.00;;;;;;;23.86;72.09;99391.66;7253903;40;20421;31
2023/08/15 20:43:35;;;;;;;4.50;1.90;;;;;;;23.83;72.45;99390.22;7257178;40;20261;31
2023/08/15 20:48:52;;;;;;;3.00;2.10;;;;;;;23.82;71.34;99390.47;7274554;40;20467;31
2023/08/15 20:54:24;;;;;;;2.30;2.10;;;;;;;23.63;72.53;99396.19;7243319;40;20265;31
2023/08/15 21:00:00;;;;;;;3.25;2.20;;;;;;;23.53;73.52;99395.16;7235937;40;20424;31
2023/08/15 21:05:20;;;;;;;2.72;2.10;;;;;;;23.45;72.60;99393.63;7171652;40;20327;31
2023/08/15 21:10:55;;;;;;;2.80;2.20;;;;;;;23.35;73.84;99398.87;7194327;40;20269;31
2023/08/15 21:16:31;;;;;;;4.12;2.25;;;;;;;23.30;73.13;99405.13;7190825;40;20313;31
2023/08/15 21:21:51;;;;;;;3.00;2.42;;;;;;;23.07;74.10;99412.63;7196495;40;20471;31
2023/08/15 21:27:12;;;;;;;2.50;2.30;;;;;;;23.15;73.72;99409.47;7246238;40;20260;31
2023/08/15 21:32:47;;;;;;;4.12;3.65;;;;;;;23.11;73.29;99406.37;7235309;40;20249;31
2023/08/15 21:38:08;;;;;;;3.44;2.40;;;;;;;23.10;74.07;99407.47;7253013;40;20319;31
2023/08/15 21:43:39;;;;;;;2.60;2.22;;;;;;;23.13;73.19;99411.63;7283449;40;20279;31
2023/08/15 21:49:15;;;;;;;2.65;2.30;;;;;;;23.04;73.12;99400.16;7292842;39;20381;31
2023/08/15 21:59:51;;;;;;;2.70;2.20;;;;;;;22.95;74.13;99409.88;7254144;40;21158;31
2023/08/15 22:05:28;;;;;;;3.72;2.60;;;;;;;22.86;75.03;99406.66;7229909;40;20269;31
2023/08/15 22:11:04;;;;;;;2.86;2.30;;;;;;;22.90;74.33;99418.03;7195855;40;20257;31
2023/08/15 22:16:23;;;;;;;2.62;2.42;;;;;;;22.90;73.77;99427.09;7218196;40;20258;31
2023/08/15 22:21:58;;;;;;;3.17;2.40;;;;;;;22.73;75.06;99408.84;7236486;40;20253;31
2023/08/15 22:27:33;;;;;;;4.44;2.48;;;;;;;22.55;75.48;99417.19;7264311;40;20242;31
2023/08/15 22:32:54;;;;;;;5.30;2.65;;;;;;;22.54;75.38;99421.84;7313763;39;20292;31
2023/08/15 22:38:29;;;;;;;2.90;2.37;;;;;;;22.58;76.34;99414.78;7355291;39;20240;31
2023/08/15 22:43:50;;;;;;;2.62;2.30;;;;;;;22.68;76.22;99425.19;7254698;40;20289;31
2023/08/15 22:54:25;;;;;;;4.90;2.10;;;;;;;22.74;75.95;99424.22;7276410;40;21023;31
2023/08/15 23:04:47;;;;;;;3.08;2.10;;;;;;;22.79;76.17;99413.38;7282223;39;20276;31
2023/08/15 23:15:24;;;;;;;2.55;2.28;;;;;;;22.69;76.02;99413.97;7289502;39;21136;31
2023/08/15 23:21:00;;;;;;;3.65;2.53;;;;;;;22.66;76.52;99410.81;7293525;39;20269;31
2023/08/15 23:31:37;;;;;;;3.05;2.10;;;;;;;22.65;76.96;99401.75;7272614;39;20447;31
2023/08/15 23:42:01;;;;;;;4.20;2.58;;;;;;;22.66;76.67;99413.56;7265051;39;20268;31
2023/08/15 23:52:39;;;;;;;3.60;2.60;;;;;;;22.55;78.20;99404.28;7255413;40;20257;31
2023/08/15 23:57:59;;;;;;;3.28;2.62;;;;;;;22.46;79.26;99378.22;7296086;40;20307;31
